createdAt,value
2023-03-24T05:02:55.886Z,4.39
2023-03-24T05:05:59.627Z,4.38
2023-03-24T05:09:02.633Z,4.38
2023-03-24T05:12:05.673Z,4.47
2023-03-24T05:18:11.287Z,4.66
2023-03-24T05:21:14.116Z,4.79
2023-03-24T05:24:17.041Z,4.86
2023-03-24T05:27:22.906Z,4.96
2023-03-24T05:30:26.199Z,5.01
2023-03-24T05:33:28.980Z,5.12
2023-03-24T05:36:31.726Z,5.24
2023-03-24T05:39:34.463Z,5.34
2023-03-24T05:42:37.296Z,5.48
2023-03-24T05:45:40.200Z,5.65
2023-03-24T05:51:44.691Z,5.98
2023-03-24T05:54:49.594Z,6.12
2023-03-24T05:57:52.505Z,6.28
2023-03-24T06:00:55.229Z,6.47
2023-03-24T06:03:58.207Z,6.67
2023-03-24T06:07:01.257Z,6.88
2023-03-24T06:10:05.056Z,7.16
2023-03-24T06:13:09.456Z,7.46
2023-03-24T06:16:12.839Z,7.72
2023-03-24T06:19:16.468Z,8.01
2023-03-24T06:22:19.922Z,8.25
2023-03-24T06:25:22.840Z,8.55
2023-03-24T06:28:30.560Z,8.84
2023-03-24T06:31:37.923Z,9.14
2023-03-24T06:34:40.832Z,9.36
2023-03-24T06:37:43.751Z,9.63
2023-03-24T06:40:46.612Z,9.79
2023-03-24T06:43:49.711Z,9.94
2023-03-24T06:46:52.698Z,10.13
2023-03-24T06:49:55.745Z,10.35
2023-03-24T06:52:58.737Z,10.80
2023-03-24T06:56:01.402Z,11.10
2023-03-24T06:59:04.272Z,11.37
2023-03-24T07:02:09.046Z,11.74
2023-03-24T07:05:13.718Z,11.96
2023-03-24T07:08:36.702Z,12.19
2023-03-24T07:11:41.572Z,12.39
2023-03-24T07:14:44.739Z,12.52
2023-03-24T07:17:47.637Z,12.66
2023-03-24T07:20:50.940Z,12.77
2023-03-24T07:23:53.671Z,12.95
2023-03-24T07:26:56.575Z,13.16
2023-03-24T07:30:00.301Z,13.28
2023-03-24T07:33:07.753Z,13.42
2023-03-24T07:36:10.653Z,13.60
2023-03-24T07:39:13.631Z,13.83
2023-03-24T07:42:16.851Z,13.94
2023-03-24T07:45:20.190Z,14.04
2023-03-24T07:48:22.926Z,14.14
2023-03-24T07:51:25.669Z,14.27
2023-03-24T07:54:28.439Z,14.33
2023-03-24T07:57:32.292Z,14.50
2023-03-24T08:00:35.690Z,14.62
2023-03-24T08:03:39.000Z,14.64
2023-03-24T08:06:45.432Z,14.90
2023-03-24T08:09:48.724Z,15.00
2023-03-24T08:12:51.483Z,15.02
2023-03-24T08:15:54.686Z,15.12
2023-03-24T08:19:00.193Z,15.41
2023-03-24T08:22:03.695Z,15.84
2023-03-24T08:25:08.673Z,16.03
2023-03-24T08:28:13.494Z,16.20
2023-03-24T08:31:16.711Z,16.10
2023-03-24T08:34:20.580Z,16.53
2023-03-24T08:37:23.689Z,17.10
2023-03-24T08:40:27.600Z,17.25
2023-03-24T08:43:30.980Z,17.20
2023-03-24T08:46:34.790Z,17.21
2023-03-24T08:49:37.670Z,17.09
2023-03-24T08:52:48.366Z,17.06
2023-03-24T08:55:52.656Z,17.19
2023-03-24T08:58:55.431Z,17.51
2023-03-24T09:01:58.213Z,17.82
2023-03-24T09:05:01.591Z,18.11
2023-03-24T09:08:04.540Z,18.37
2023-03-24T09:11:08.272Z,18.48
2023-03-24T09:14:10.950Z,18.59
2023-03-24T09:17:13.658Z,18.72
2023-03-24T09:20:18.875Z,18.64
2023-03-24T09:23:22.661Z,18.63
2023-03-24T09:26:26.678Z,18.95
2023-03-24T09:29:31.359Z,18.92
2023-03-24T09:32:37.462Z,19.00
2023-03-24T09:35:40.803Z,18.85
2023-03-24T09:38:43.653Z,19.14
2023-03-24T09:41:47.955Z,19.29
2023-03-24T09:45:04.066Z,19.69
2023-03-24T09:48:27.676Z,19.43
2023-03-24T09:51:34.551Z,19.85
2023-03-24T09:54:58.978Z,20.14
2023-03-24T09:58:09.711Z,20.57
2023-03-24T10:01:16.877Z,20.30
2023-03-24T10:04:22.869Z,20.98
2023-03-24T10:07:33.664Z,21.27
2023-03-24T10:11:01.029Z,21.95
2023-03-24T10:14:12.827Z,21.54
2023-03-24T10:18:06.728Z,21.79
2023-03-24T10:21:19.950Z,21.21
2023-03-24T10:24:44.798Z,20.71
2023-03-24T10:27:52.247Z,20.57
2023-03-24T10:31:02.325Z,20.96
2023-03-24T10:34:08.629Z,20.75
2023-03-24T10:37:11.697Z,21.24
2023-03-24T10:40:19.659Z,21.19
2023-03-24T10:43:23.837Z,21.25
2023-03-24T10:46:30.673Z,21.42
2023-03-24T10:49:33.967Z,21.24
2023-03-24T10:52:43.403Z,21.55
2023-03-24T10:55:48.083Z,21.79
2023-03-24T10:58:53.698Z,21.89
2023-03-24T11:02:00.800Z,21.83
2023-03-24T11:05:15.961Z,21.59
2023-03-24T11:08:35.821Z,21.66
2023-03-24T11:11:40.553Z,21.75
2023-03-24T11:14:46.409Z,22.23
2023-03-24T11:18:16.719Z,22.58
2023-03-24T11:21:20.820Z,21.05
2023-03-24T11:24:29.988Z,21.67
2023-03-24T11:27:42.977Z,21.54
2023-03-24T11:30:48.563Z,21.46
2023-03-24T11:34:03.014Z,21.39
2023-03-24T11:37:14.043Z,21.42
2023-03-24T11:40:18.779Z,21.37
2023-03-24T11:43:22.118Z,21.80
2023-03-24T11:46:27.793Z,21.41
2023-03-24T11:49:38.957Z,21.82
2023-03-24T11:53:00.695Z,22.06
2023-03-24T11:56:12.225Z,21.84
2023-03-24T11:59:32.169Z,22.72
2023-03-24T12:03:02.554Z,22.61
2023-03-24T12:06:30.093Z,22.89
2023-03-24T12:09:51.345Z,23.09
2023-03-24T12:13:29.990Z,22.81
2023-03-24T12:17:00.853Z,23.07
2023-03-24T12:20:23.130Z,22.92
2023-03-24T12:23:34.748Z,23.15
2023-03-24T12:30:17.464Z,22.63
2023-03-24T12:33:42.344Z,22.27
2023-03-24T12:37:02.573Z,22.77
2023-03-24T12:40:10.505Z,22.23
2023-03-24T12:43:43.602Z,22.34
2023-03-24T12:46:54.203Z,22.70
2023-03-24T12:50:16.393Z,23.66
2023-03-24T12:53:42.757Z,23.19
2023-03-24T12:56:52.187Z,23.39
2023-03-24T13:00:08.463Z,22.99
2023-03-24T13:03:15.782Z,23.22
2023-03-24T13:06:26.349Z,23.03
2023-03-24T13:09:32.189Z,23.59
2023-03-24T13:12:46.514Z,22.54
2023-03-24T13:15:56.766Z,22.70
2023-03-24T13:19:03.588Z,22.62
2023-03-24T13:22:14.215Z,23.11
2023-03-24T13:25:34.399Z,23.49
2023-03-24T13:29:04.005Z,24.27
2023-03-24T13:32:16.034Z,23.44
2023-03-24T13:35:37.800Z,23.22
2023-03-24T13:38:50.496Z,23.22
2023-03-24T13:41:56.176Z,23.41
2023-03-24T13:45:05.102Z,23.55
2023-03-24T13:48:11.088Z,23.41
2023-03-24T13:51:20.346Z,24.32
2023-03-24T13:54:25.901Z,23.99
2023-03-24T13:57:29.376Z,24.02
2023-03-24T14:00:32.211Z,23.60
2023-03-24T14:03:46.866Z,23.27
2023-03-24T14:06:57.784Z,23.03
2023-03-24T14:10:21.269Z,23.22
2023-03-24T14:13:25.315Z,23.16
2023-03-24T14:16:53.820Z,22.91
2023-03-24T14:20:02.318Z,22.55
2023-03-24T14:23:05.385Z,22.59
2023-03-24T14:26:20.595Z,22.37
2023-03-24T14:29:51.401Z,22.34
2023-03-24T14:33:02.685Z,22.17
2023-03-24T14:36:12.255Z,21.88
2023-03-24T14:39:39.385Z,21.92
2023-03-24T14:42:43.163Z,21.86
2023-03-24T14:46:21.412Z,21.74
2023-03-24T14:49:30.494Z,21.76
2023-03-24T14:52:39.015Z,21.63
2023-03-24T14:55:44.497Z,21.55
2023-03-24T14:58:51.267Z,21.55
2023-03-24T15:02:01.349Z,21.47
2023-03-24T15:05:31.639Z,21.35
2023-03-24T15:08:37.716Z,21.24
2023-03-24T15:11:41.939Z,21.28
2023-03-24T15:14:44.661Z,21.27
2023-03-24T15:17:47.480Z,21.28
2023-03-24T15:20:51.461Z,21.24
2023-03-24T15:23:55.774Z,21.19
2023-03-24T15:27:07.861Z,21.12
2023-03-24T15:30:15.034Z,21.06
2023-03-24T15:33:18.533Z,21.00
2023-03-24T15:36:22.860Z,20.95
2023-03-24T15:39:32.971Z,20.88
2023-03-24T15:42:40.900Z,20.86
2023-03-24T15:45:49.635Z,20.81
2023-03-24T15:48:58.444Z,20.69
2023-03-24T15:52:07.371Z,20.63
2023-03-24T15:55:32.190Z,20.59
2023-03-24T15:58:48.647Z,20.49
2023-03-24T16:01:51.488Z,20.38
2023-03-24T16:05:09.899Z,20.26
2023-03-24T16:08:31.937Z,20.12
2023-03-24T16:11:34.885Z,19.94
2023-03-24T16:14:39.014Z,19.85
2023-03-24T16:17:41.822Z,19.75
2023-03-24T16:20:44.793Z,19.64
2023-03-24T16:23:49.573Z,19.58
2023-03-24T16:26:52.356Z,19.46
2023-03-24T16:29:56.023Z,19.40
2023-03-24T16:32:58.767Z,19.28
2023-03-24T16:36:01.591Z,19.24
2023-03-24T16:39:13.626Z,19.16
2023-03-24T16:42:16.416Z,19.09
2023-03-24T16:45:19.630Z,19.03
2023-03-24T16:48:22.489Z,19.00
2023-03-24T16:51:27.343Z,18.94
2023-03-24T16:54:31.370Z,18.86
2023-03-24T16:57:34.144Z,18.80
2023-03-24T17:00:40.806Z,18.73
2023-03-24T17:03:50.010Z,18.62
2023-03-24T17:06:54.629Z,18.51
2023-03-24T17:09:57.521Z,18.42
2023-03-24T17:13:02.263Z,18.33
2023-03-24T17:16:06.746Z,18.23
2023-03-24T17:19:28.456Z,18.15
2023-03-24T17:22:32.226Z,18.09
2023-03-24T17:25:37.832Z,17.99
2023-03-24T17:28:44.829Z,17.92
2023-03-24T17:31:47.861Z,17.87
2023-03-24T17:34:51.165Z,17.76
2023-03-24T17:37:53.953Z,17.68
2023-03-24T17:41:04.908Z,17.59
2023-03-24T17:44:07.864Z,17.58
2023-03-24T17:47:11.123Z,17.53
2023-03-24T17:50:14.502Z,17.51
2023-03-24T17:53:17.511Z,17.54
2023-03-24T17:56:20.315Z,17.53
2023-03-24T17:59:23.359Z,17.44
2023-03-24T18:02:27.984Z,17.36
2023-03-24T18:05:31.188Z,17.20
2023-03-24T18:08:34.861Z,17.14
2023-03-24T18:11:37.723Z,17.00
2023-03-24T18:14:40.709Z,16.95
2023-03-24T18:17:44.225Z,16.87
2023-03-24T18:20:50.043Z,16.84
2023-03-24T18:23:53.495Z,16.71
2023-03-24T18:26:56.853Z,16.69
2023-03-24T18:30:00.687Z,16.61
2023-03-24T18:33:04.719Z,16.55
2023-03-24T18:36:10.596Z,16.49
2023-03-24T18:39:14.505Z,16.43
2023-03-24T18:42:18.333Z,16.39
2023-03-24T18:45:33.224Z,16.32
2023-03-24T18:48:44.617Z,16.32
2023-03-24T18:51:49.063Z,16.27
2023-03-24T18:54:53.559Z,16.28
2023-03-24T18:57:58.758Z,16.23
2023-03-24T19:01:10.407Z,16.16
2023-03-24T19:04:17.783Z,16.03
2023-03-24T19:07:26.709Z,15.90
2023-03-24T19:10:29.985Z,15.82
2023-03-24T19:13:34.254Z,15.66
2023-03-24T19:16:37.884Z,15.59
2023-03-24T19:19:42.936Z,15.56
2023-03-24T19:22:49.039Z,15.53
2023-03-24T19:25:56.508Z,15.50
2023-03-24T19:29:00.104Z,15.47
2023-03-24T19:32:03.115Z,15.41
2023-03-24T19:35:08.402Z,15.37
2023-03-24T19:38:11.926Z,15.31
2023-03-24T19:41:16.529Z,15.27
2023-03-24T19:44:19.256Z,15.21
2023-03-24T19:47:23.148Z,15.10
2023-03-24T19:50:26.261Z,15.02
2023-03-24T19:53:30.923Z,14.93
2023-03-24T19:56:34.103Z,14.87
2023-03-24T19:59:37.711Z,14.84
2023-03-24T20:02:40.824Z,14.78
2023-03-24T20:05:43.858Z,14.72
2023-03-24T20:08:48.009Z,14.65
2023-03-24T20:11:54.243Z,14.58
2023-03-24T20:14:59.439Z,14.59
2023-03-24T20:18:02.388Z,14.53
2023-03-24T20:21:07.611Z,14.47
2023-03-24T20:24:10.902Z,14.48
2023-03-24T20:27:14.948Z,14.46
2023-03-24T20:30:18.943Z,14.44
2023-03-24T20:33:22.276Z,14.42
2023-03-24T20:36:25.623Z,14.39
2023-03-24T20:39:29.118Z,14.39
2023-03-24T20:42:33.204Z,14.35
2023-03-24T20:45:36.105Z,14.34
2023-03-24T20:48:42.385Z,14.30
2023-03-24T20:51:46.038Z,14.29
2023-03-24T20:54:50.321Z,14.27
2023-03-24T20:57:54.068Z,14.27
2023-03-24T21:00:57.751Z,14.26
2023-03-24T21:04:09.125Z,14.25
2023-03-24T21:07:13.811Z,14.22
2023-03-24T21:10:18.451Z,14.20
2023-03-24T21:16:27.017Z,14.15
2023-03-24T21:19:30.055Z,14.14
2023-03-24T21:22:47.541Z,14.11
2023-03-24T21:25:51.887Z,14.09
2023-03-24T21:28:54.985Z,14.06
2023-03-24T21:31:57.855Z,14.03
2023-03-24T21:35:04.958Z,14.01
2023-03-24T21:38:09.774Z,13.98
2023-03-24T21:41:12.769Z,13.98
2023-03-24T21:44:15.658Z,13.94
2023-03-24T21:47:18.779Z,13.91
2023-03-24T21:50:24.481Z,13.92
2023-03-24T21:53:27.536Z,13.89
2023-03-24T21:56:32.538Z,13.86
2023-03-24T21:59:38.033Z,13.84
2023-03-24T22:02:45.693Z,13.82
2023-03-24T22:05:48.947Z,13.81
2023-03-24T22:08:53.338Z,13.78
2023-03-24T22:11:57.453Z,13.75
2023-03-24T22:15:01.118Z,13.59
2023-03-24T22:18:04.217Z,13.54
2023-03-24T22:21:08.530Z,13.42
2023-03-24T22:24:11.424Z,13.32
2023-03-24T22:27:14.238Z,13.27
2023-03-24T22:30:20.099Z,13.28
2023-03-24T22:33:22.957Z,13.28
2023-03-24T22:36:25.729Z,13.33
2023-03-24T22:39:30.501Z,13.21
2023-03-24T22:42:33.225Z,13.17
2023-03-24T22:45:36.095Z,13.18
2023-03-24T22:48:39.439Z,13.12
2023-03-24T22:51:42.227Z,13.17
2023-03-24T22:54:45.134Z,13.05
2023-03-24T22:57:47.816Z,13.00
2023-03-24T23:00:54.847Z,13.00
2023-03-24T23:03:57.525Z,12.99
2023-03-24T23:07:00.754Z,12.93
2023-03-24T23:10:06.607Z,12.91
2023-03-24T23:13:12.207Z,12.93
2023-03-24T23:16:20.860Z,12.87
2023-03-24T23:19:23.825Z,12.83
2023-03-24T23:22:26.609Z,12.78
2023-03-24T23:25:31.262Z,12.90
2023-03-24T23:28:34.266Z,12.93
2023-03-24T23:31:41.301Z,13.07
2023-03-24T23:34:46.300Z,13.21
2023-03-24T23:37:52.234Z,13.27
2023-03-24T23:40:55.126Z,13.24
2023-03-24T23:43:57.899Z,13.15
2023-03-24T23:47:00.732Z,13.06
2023-03-24T23:50:05.651Z,13.00
2023-03-24T23:53:08.482Z,12.88
2023-03-24T23:56:13.974Z,12.79
2023-03-24T23:59:20.491Z,12.69
